Terminal Aerodrome Forecast
Issued by NWS

Home | Current Version | Previous Version | Text Only | Print | Product List | Glossary On
Versions: 1 2 3 4 5 6 7 8 9 10 11 12 13 14 15 16 17 18 19 20 21 22 23 24
000
FTUS45 KPSR 280500
TAFIWA
TAF
KIWA 280521Z 2806/0106 20006KT P6SM FEW150 SCT250
     FM280800 16010KT P6SM FEW150 BKN250
     FM281100 14012KT P6SM SCT060 BKN150
     FM282100 24015G25KT P6SM FEW060 BKN100
     FM010300 20010KT P6SM SCT060 OVC100
      AMD LTD TO CLD VIS AND WIND TIL 281300=

USA.gov is the U.S. government's official web portal to all federal, state and local government web resources and services.